createdAt,value
2018-03-11T00:00:56.297Z,6.30
2018-03-11T00:03:24.691Z,6.30
2018-03-11T00:05:53.148Z,6.30
2018-03-11T00:26:27.411Z,6.60
2018-03-11T00:28:55.676Z,6.50
2018-03-11T00:31:23.963Z,6.40
2018-03-11T00:33:52.197Z,6.40
2018-03-11T00:54:24.739Z,6.30
2018-03-11T00:56:52.973Z,6.20
2018-03-11T00:59:21.277Z,6.20
2018-03-11T01:01:49.535Z,6.30
2018-03-11T01:04:17.940Z,6.10
2018-03-11T01:24:49.711Z,5.70
2018-03-11T01:45:21.352Z,5.60
2018-03-11T02:05:53.834Z,5.00
2018-03-11T02:08:22.071Z,5.10
2018-03-11T02:10:50.316Z,5.00
2018-03-11T02:13:19.683Z,5.10
2018-03-11T02:15:47.986Z,5.10
2018-03-11T02:18:17.002Z,5.20
2018-03-11T02:20:46.100Z,5.20
2018-03-11T02:23:14.330Z,5.20
2018-03-11T02:25:42.611Z,5.30
2018-03-11T02:28:10.912Z,5.40
2018-03-11T02:30:39.218Z,5.40
2018-03-11T02:33:07.493Z,5.40
2018-03-11T02:35:35.784Z,5.40
2018-03-11T02:38:04.832Z,5.40
2018-03-11T02:40:33.132Z,5.40
2018-03-11T03:01:04.196Z,5.30
2018-03-11T03:03:32.434Z,5.30
2018-03-11T03:06:00.707Z,5.30
2018-03-11T03:08:29.136Z,5.30
2018-03-11T03:10:57.412Z,5.40
2018-03-11T03:13:25.746Z,5.50
2018-03-11T03:15:54.904Z,5.50
2018-03-11T03:36:23.519Z,5.50
2018-03-11T03:38:51.949Z,5.60
2018-03-11T03:59:24.571Z,5.90
2018-03-11T04:01:52.980Z,5.90
2018-03-11T04:04:21.214Z,5.90
2018-03-11T04:06:49.522Z,5.90
2018-03-11T04:09:17.832Z,5.80
2018-03-11T04:11:46.075Z,5.80
2018-03-11T04:14:14.314Z,5.90
2018-03-11T04:16:42.892Z,5.90
2018-03-11T04:19:11.165Z,5.90
2018-03-11T04:21:39.397Z,5.80
2018-03-11T04:42:10.248Z,5.30
2018-03-11T04:44:38.592Z,5.10
2018-03-11T04:47:06.888Z,5.10
2018-03-11T04:49:36.049Z,4.90
2018-03-11T04:52:04.275Z,4.90
2018-03-11T04:54:32.548Z,5.00
2018-03-11T04:57:01.695Z,5.10
2018-03-11T04:59:29.960Z,5.10
2018-03-11T05:01:58.211Z,5.10
2018-03-11T05:04:26.571Z,5.00
2018-03-11T05:06:54.886Z,5.00
2018-03-11T05:09:23.221Z,5.10
2018-03-11T05:29:54.982Z,3.90
2018-03-11T05:32:23.264Z,3.80
2018-03-11T05:34:51.541Z,3.80
2018-03-11T05:37:20.077Z,3.70
2018-03-11T05:39:49.181Z,3.90
2018-03-11T05:42:18.213Z,4.00
2018-03-11T05:44:46.591Z,4.00
2018-03-11T05:47:14.876Z,4.10
2018-03-11T05:49:43.106Z,4.20
2018-03-11T06:10:15.112Z,4.50
2018-03-11T06:12:44.148Z,4.50
2018-03-11T06:15:12.424Z,4.50
2018-03-11T06:17:40.925Z,4.50
2018-03-11T06:20:09.166Z,4.70
2018-03-11T06:22:37.489Z,4.80
2018-03-11T06:25:05.786Z,4.80
2018-03-11T06:27:34.027Z,4.90
2018-03-11T06:30:02.302Z,4.90
2018-03-11T06:32:30.680Z,4.90
2018-03-11T06:34:59.708Z,5.00
2018-03-11T06:37:27.984Z,4.90
2018-03-11T06:39:56.241Z,5.00
2018-03-11T06:42:24.507Z,5.10
2018-03-11T06:44:52.788Z,5.10
2018-03-11T06:47:21.519Z,5.10
2018-03-11T06:49:49.795Z,5.10
2018-03-11T06:52:18.067Z,5.10
2018-03-11T06:54:46.392Z,5.20
2018-03-11T06:57:15.432Z,5.20
2018-03-11T06:59:43.703Z,5.20
2018-03-11T07:20:13.888Z,5.30
2018-03-11T07:22:42.122Z,5.30
2018-03-11T07:25:10.429Z,5.40
2018-03-11T07:27:38.809Z,5.40
2018-03-11T07:30:07.070Z,5.50
2018-03-11T07:32:35.319Z,5.60
2018-03-11T07:53:07.781Z,6.00
2018-03-11T08:13:37.801Z,5.90
2018-03-11T08:16:06.071Z,5.90
2018-03-11T08:18:34.379Z,6.00
2018-03-11T08:21:02.613Z,6.00
2018-03-11T08:23:31.055Z,6.00
2018-03-11T08:25:59.332Z,6.10
2018-03-11T08:28:28.370Z,6.30
2018-03-11T08:30:56.741Z,6.30
2018-03-11T08:33:24.996Z,6.40
2018-03-11T08:35:53.230Z,6.50
2018-03-11T08:56:26.208Z,7.20
2018-03-11T08:58:54.475Z,7.30
2018-03-11T09:01:22.740Z,7.40
2018-03-11T09:21:52.652Z,7.90
2018-03-11T09:24:20.974Z,8.00
2018-03-11T09:26:49.252Z,8.00
2018-03-11T09:29:17.520Z,8.20
2018-03-11T09:31:45.808Z,8.20
2018-03-11T09:34:14.104Z,8.20
2018-03-11T09:36:42.446Z,8.20
2018-03-11T09:57:21.949Z,9.20
2018-03-11T10:17:52.401Z,9.80
2018-03-11T10:38:22.665Z,9.90
2018-03-11T10:58:57.223Z,10.40
2018-03-11T11:01:31.084Z,10.40
2018-03-11T11:04:02.531Z,10.40
2018-03-11T11:06:30.800Z,10.40
2018-03-11T11:27:02.479Z,10.20
2018-03-11T11:29:30.733Z,10.10
2018-03-11T11:31:59.021Z,10.10
2018-03-11T11:34:27.572Z,10.00
2018-03-11T11:36:56.629Z,10.00
2018-03-11T11:57:26.978Z,9.90
2018-03-11T11:59:55.260Z,9.90
2018-03-11T12:02:23.499Z,9.90
2018-03-11T12:22:55.912Z,9.80
2018-03-11T12:25:24.151Z,9.90
2018-03-11T12:27:52.437Z,10.00
2018-03-11T12:48:26.519Z,10.30
2018-03-11T12:50:54.791Z,10.30
2018-03-11T12:53:23.067Z,10.40
2018-03-11T12:55:51.345Z,10.40
2018-03-11T13:16:21.595Z,10.50
2018-03-11T13:18:50.124Z,10.50
2018-03-11T13:21:18.399Z,10.50
2018-03-11T13:23:46.675Z,10.50
2018-03-11T13:26:14.956Z,10.50
2018-03-11T13:28:48.705Z,10.50
2018-03-11T13:31:17.032Z,10.50
2018-03-11T13:52:02.396Z,10.50
2018-03-11T13:54:30.699Z,10.50
2018-03-11T13:57:10.880Z,10.50
2018-03-11T13:59:39.907Z,10.50
2018-03-11T14:02:08.200Z,10.50
2018-03-11T14:04:36.479Z,10.50
2018-03-11T14:07:04.782Z,10.50
2018-03-11T14:09:33.024Z,10.50
2018-03-11T14:12:01.312Z,10.50
2018-03-11T14:32:32.572Z,10.50
2018-03-11T14:35:00.901Z,10.50
2018-03-11T14:37:29.246Z,10.50
2018-03-11T14:58:00.413Z,10.50
2018-03-11T15:00:28.700Z,10.50
2018-03-11T15:02:56.978Z,10.50
2018-03-11T15:05:25.285Z,10.50
2018-03-11T15:07:53.547Z,10.50
2018-03-11T15:28:24.170Z,10.80
2018-03-11T15:30:53.241Z,10.80
2018-03-11T15:33:21.602Z,10.70
2018-03-11T15:53:53.043Z,10.60
2018-03-11T16:14:24.484Z,10.30
2018-03-11T16:34:55.648Z,10.10
2018-03-11T16:37:23.924Z,10.10
2018-03-11T16:39:52.167Z,10.10
2018-03-11T17:00:21.877Z,9.90
2018-03-11T17:02:50.123Z,9.90
2018-03-11T17:05:19.194Z,9.80
2018-03-11T17:07:47.484Z,9.80
2018-03-11T17:10:15.800Z,9.80
2018-03-11T17:12:44.849Z,9.80
2018-03-11T17:33:14.919Z,9.60
2018-03-11T17:35:43.964Z,9.50
2018-03-11T17:38:12.270Z,9.50
2018-03-11T17:40:40.651Z,9.50
2018-03-11T17:43:08.916Z,9.50
2018-03-11T18:03:41.240Z,9.40
2018-03-11T18:06:09.536Z,9.30
2018-03-11T18:26:42.280Z,9.20
2018-03-11T18:29:10.585Z,9.20
2018-03-11T18:49:41.206Z,9.10
2018-03-11T19:10:14.480Z,9.00
2018-03-11T19:12:42.783Z,9.00
2018-03-11T19:33:14.352Z,8.70
2018-03-11T19:53:45.300Z,8.40
2018-03-11T20:14:17.474Z,8.20
2018-03-11T20:16:45.980Z,8.30
2018-03-11T20:37:17.024Z,8.00
2018-03-11T20:57:49.615Z,7.80
2018-03-11T21:00:17.936Z,7.80
2018-03-11T21:02:46.965Z,7.90
2018-03-11T21:05:15.298Z,7.80
2018-03-11T21:07:43.668Z,7.90
2018-03-11T21:10:11.947Z,7.90
2018-03-11T21:12:40.460Z,7.80
2018-03-11T21:15:08.748Z,7.80
2018-03-11T21:17:37.746Z,7.80
2018-03-11T21:20:06.025Z,7.80
2018-03-11T21:22:35.059Z,7.90
2018-03-11T21:25:03.338Z,7.90
2018-03-11T21:27:31.649Z,7.90
2018-03-11T21:29:59.908Z,7.80
2018-03-11T21:32:28.175Z,7.80
2018-03-11T21:34:56.508Z,7.80
2018-03-11T21:37:24.763Z,7.80
2018-03-11T21:39:53.040Z,7.90
2018-03-11T21:42:21.334Z,7.80
2018-03-11T21:44:49.599Z,7.80
2018-03-11T21:47:17.879Z,7.90
2018-03-11T21:49:46.152Z,7.90
2018-03-11T21:52:14.648Z,7.90
2018-03-11T21:54:42.949Z,7.80
2018-03-11T21:57:11.272Z,7.70
2018-03-11T21:59:39.532Z,7.60
2018-03-11T22:02:08.564Z,7.50
2018-03-11T22:04:36.868Z,7.50
2018-03-11T22:07:05.107Z,7.50
2018-03-11T22:27:36.509Z,7.60
2018-03-11T22:30:04.745Z,7.50
2018-03-11T22:50:37.167Z,7.50
2018-03-11T22:53:05.410Z,7.50
2018-03-11T23:13:37.561Z,7.60
2018-03-11T23:16:05.821Z,7.60
2018-03-11T23:18:45.861Z,7.50
2018-03-11T23:39:17.513Z,7.60
2018-03-11T23:41:46.642Z,7.60
2018-03-11T23:44:14.952Z,7.50
2018-03-11T23:46:43.207Z,7.50
2018-03-11T23:49:11.587Z,7.50
